Time;durP1;ratioP1;P1;durP2;ratioP2;P2;SDS_P1;SDS_P2;PMS_P1;PMS_P2;Temp;Humidity;BMP_temperature;BMP_pressure;BME280_temperature;BME280_humidity;BME280_pressure;Samples;Min_cycle;Max_cycle;Signal;HPM_P1;HPM_P2
2022/07/01 00:01:55;;;;;;;10.73;5.03;;;22.90;99.90;;;;;;5089475;28;20494;-85
2022/07/01 00:04:20;;;;;;;18.25;5.82;;;22.90;99.90;;;;;;5069320;28;20111;-86
2022/07/01 00:06:46;;;;;;;15.48;5.78;;;22.90;99.90;;;;;;5054514;28;20159;-84
2022/07/01 00:09:12;;;;;;;9.88;4.90;;;22.80;99.90;;;;;;5061412;28;20107;-86
2022/07/01 00:11:38;;;;;;;9.98;5.38;;;22.80;99.90;;;;;;5075499;28;20012;-84
2022/07/01 00:14:04;;;;;;;15.80;5.60;;;22.70;99.90;;;;;;5074599;28;20170;-84
2022/07/01 00:16:30;;;;;;;12.40;5.22;;;22.70;99.90;;;;;;5079075;28;20411;-84
2022/07/01 00:18:55;;;;;;;10.88;5.38;;;22.70;99.90;;;;;;5089119;28;20021;-84
2022/07/01 00:21:21;;;;;;;11.52;5.75;;;22.70;99.90;;;;;;5088211;28;20020;-84
2022/07/01 00:23:47;;;;;;;18.23;5.75;;;22.70;99.90;;;;;;5088817;28;20025;-85
2022/07/01 00:26:12;;;;;;;13.57;5.18;;;22.70;99.90;;;;;;5068279;28;20482;-84
2022/07/01 00:28:39;;;;;;;14.40;5.68;;;22.60;99.90;;;;;;5071585;28;20386;-84
2022/07/01 00:31:09;;;;;;;10.60;5.55;;;22.60;99.90;;;;;;5077521;28;20556;-86
2022/07/01 00:33:35;;;;;;;11.70;5.43;;;22.60;99.90;;;;;;5071695;28;20012;-86
2022/07/01 00:36:01;;;;;;;10.60;5.00;;;22.60;99.90;;;;;;5077529;28;20028;-86
2022/07/01 00:38:27;;;;;;;15.85;5.30;;;22.60;99.90;;;;;;5056830;28;20036;-86
2022/07/01 00:40:54;;;;;;;11.90;5.55;;;22.60;99.90;;;;;;5080835;28;20024;-86
2022/07/01 00:43:23;;;;;;;15.38;6.05;;;22.60;99.90;;;;;;5072130;28;20035;-85
2022/07/01 00:45:49;;;;;;;13.80;5.80;;;22.60;99.90;;;;;;5064418;28;20052;-85
2022/07/01 00:48:16;;;;;;;10.15;5.47;;;22.70;99.90;;;;;;5091356;28;20031;-86
2022/07/01 00:50:42;;;;;;;10.68;5.32;;;22.70;99.90;;;;;;5060089;28;20033;-86
2022/07/01 00:53:08;;;;;;;11.20;5.22;;;22.70;99.90;;;;;;5059707;28;20035;-86
2022/07/01 00:55:34;;;;;;;11.93;5.45;;;22.60;99.90;;;;;;5077840;28;20033;-86
2022/07/01 00:58:00;;;;;;;16.83;5.20;;;22.50;99.90;;;;;;5073196;28;20047;-86
2022/07/01 01:00:28;;;;;;;13.65;5.68;;;22.50;99.90;;;;;;5085016;28;20024;-86
2022/07/01 01:02:54;;;;;;;13.05;5.40;;;22.50;99.90;;;;;;5088227;28;20016;-86
2022/07/01 01:05:21;;;;;;;13.88;5.20;;;22.40;99.90;;;;;;5080525;28;20024;-86
2022/07/01 01:07:50;;;;;;;9.38;5.13;;;22.40;99.90;;;;;;5077903;28;20058;-85
2022/07/01 01:10:16;;;;;;;16.05;5.80;;;22.50;99.90;;;;;;5075899;28;20024;-85
2022/07/01 01:12:43;;;;;;;10.23;5.70;;;22.50;99.90;;;;;;5054729;28;20471;-85
2022/07/01 01:15:09;;;;;;;10.45;5.47;;;22.50;99.90;;;;;;5079684;28;20035;-88
2022/07/01 01:17:34;;;;;;;14.95;5.90;;;22.40;99.90;;;;;;5089410;28;20043;-88
2022/07/01 01:20:00;;;;;;;13.95;6.18;;;22.40;99.90;;;;;;5066782;28;20024;-88
2022/07/01 01:22:26;;;;;;;16.17;5.97;;;22.40;99.90;;;;;;5056765;28;20031;-87
2022/07/01 01:24:52;;;;;;;10.18;5.55;;;22.40;99.90;;;;;;5076876;28;20553;-86
2022/07/01 01:27:17;;;;;;;16.98;6.45;;;22.30;99.90;;;;;;5089596;28;20032;-88
2022/07/01 01:29:44;;;;;;;10.52;5.63;;;22.30;99.90;;;;;;5084700;28;20020;-88
2022/07/01 01:32:10;;;;;;;12.07;5.50;;;22.30;99.90;;;;;;5072706;28;20059;-88
2022/07/01 01:34:38;;;;;;;17.58;5.85;;;22.30;99.90;;;;;;5077052;28;20035;-87
2022/07/01 01:37:05;;;;;;;12.45;5.57;;;22.20;99.90;;;;;;5086295;28;20032;-88
2022/07/01 01:39:31;;;;;;;11.55;5.85;;;22.20;99.90;;;;;;5076307;28;20116;-90
2022/07/01 01:41:57;;;;;;;17.40;5.53;;;22.20;99.90;;;;;;5075476;28;20107;-89
2022/07/01 01:44:23;;;;;;;15.38;5.90;;;22.20;99.90;;;;;;5060574;28;20036;-89
2022/07/01 01:46:48;;;;;;;12.30;6.00;;;22.20;99.90;;;;;;5091143;28;20016;-88
2022/07/01 01:49:17;;;;;;;11.48;5.13;;;22.30;99.90;;;;;;5090718;28;20050;-89
2022/07/01 01:51:43;;;;;;;12.00;5.07;;;22.30;99.90;;;;;;5059657;28;20115;-89
2022/07/01 01:54:08;;;;;;;13.68;5.80;;;22.30;99.90;;;;;;5058589;28;20600;-90
2022/07/01 01:56:34;;;;;;;10.48;5.57;;;22.30;99.90;;;;;;5065896;28;20158;-89
2022/07/01 01:59:00;;;;;;;16.75;5.95;;;22.30;99.90;;;;;;5073476;28;20033;-89
2022/07/01 02:01:26;;;;;;;11.30;5.30;;;22.30;99.90;;;;;;5072816;28;20019;-89
2022/07/01 02:03:53;;;;;;;11.68;5.45;;;22.30;99.90;;;;;;5091605;28;20089;-90
2022/07/01 02:06:20;;;;;;;20.05;5.47;;;22.30;99.90;;;;;;5080245;28;20107;-90
2022/07/01 02:08:46;;;;;;;16.33;5.55;;;22.20;99.90;;;;;;5060386;28;20024;-89
2022/07/01 02:11:12;;;;;;;17.95;6.10;;;22.30;99.90;;;;;;5063406;28;20103;-88
2022/07/01 02:13:38;;;;;;;12.35;5.50;;;22.30;99.90;;;;;;5073761;28;20101;-90
2022/07/01 02:16:04;;;;;;;10.55;5.18;;;22.20;99.90;;;;;;5062362;28;20027;-89
2022/07/01 02:18:32;;;;;;;11.73;5.00;;;22.30;99.90;;;;;;5055872;28;20033;-88
2022/07/01 02:20:58;;;;;;;13.10;5.57;;;22.30;99.90;;;;;;5068775;28;20024;-89
2022/07/01 02:23:24;;;;;;;11.45;4.90;;;22.30;99.90;;;;;;5093103;28;20027;-89
2022/07/01 02:25:50;;;;;;;10.15;5.75;;;22.30;99.90;;;;;;5067734;28;20469;-89
2022/07/01 02:28:16;;;;;;;11.38;5.32;;;22.20;99.90;;;;;;5093994;28;20024;-89
2022/07/01 02:30:42;;;;;;;11.43;5.07;;;22.20;99.90;;;;;;5084731;28;20032;-88
2022/07/01 02:33:08;;;;;;;12.10;4.95;;;22.20;99.90;;;;;;5094220;28;20102;-89
2022/07/01 02:35:36;;;;;;;13.43;4.78;;;22.20;99.90;;;;;;5068231;28;20028;-90
2022/07/01 02:38:03;;;;;;;11.60;4.88;;;22.20;99.90;;;;;;5063182;28;20029;-91
2022/07/01 02:40:28;;;;;;;11.10;5.30;;;22.10;99.90;;;;;;5058083;28;20115;-90
2022/07/01 02:42:54;;;;;;;11.52;4.55;;;22.20;99.90;;;;;;5057232;28;20116;-89
2022/07/01 02:45:20;;;;;;;15.23;4.60;;;22.20;99.90;;;;;;5059624;28;20242;-90
2022/07/01 02:47:45;;;;;;;12.48;4.93;;;22.10;99.90;;;;;;5075390;28;20445;-90
2022/07/01 02:50:13;;;;;;;10.43;4.60;;;22.10;99.90;;;;;;5078463;28;20028;-89
2022/07/01 02:52:40;;;;;;;11.73;4.72;;;22.10;99.90;;;;;;5056824;28;20100;-87
2022/07/01 02:55:09;;;;;;;15.35;5.70;;;22.10;99.90;;;;;;5063421;28;20024;-87
2022/07/01 02:57:34;;;;;;;12.38;4.82;;;22.10;99.90;;;;;;5091759;28;20101;-88
2022/07/01 03:00:01;;;;;;;11.82;4.82;;;22.20;99.90;;;;;;5067625;28;20588;-92
2022/07/01 03:02:26;;;;;;;9.85;4.85;;;22.20;99.90;;;;;;5073399;28;20020;-85
2022/07/01 03:04:53;;;;;;;11.50;4.70;;;22.20;99.90;;;;;;5085749;28;20035;-86
2022/07/01 03:07:20;;;;;;;10.68;4.93;;;22.20;99.90;;;;;;5085710;28;20483;-86
2022/07/01 03:09:46;;;;;;;13.20;5.05;;;22.10;99.90;;;;;;5077617;28;20510;-85
2022/07/01 03:12:25;;;;;;;15.77;4.97;;;22.10;99.90;;;;;;5056514;28;20036;-87
2022/07/01 03:14:52;;;;;;;20.13;5.22;;;22.00;99.90;;;;;;5078655;28;20031;-85
2022/07/01 03:17:18;;;;;;;15.65;4.88;;;22.00;99.90;;;;;;5070839;28;20058;-86
2022/07/01 03:19:45;;;;;;;8.98;4.45;;;22.00;99.90;;;;;;5086419;28;20016;-86
2022/07/01 03:22:10;;;;;;;10.50;4.60;;;22.10;99.90;;;;;;5091166;28;20032;-86
2022/07/01 03:24:36;;;;;;;11.70;4.60;;;22.00;99.90;;;;;;5086240;28;20030;-86
2022/07/01 03:27:02;;;;;;;18.20;5.35;;;22.10;99.90;;;;;;5067065;28;20138;-84
2022/07/01 03:29:27;;;;;;;14.38;5.07;;;22.00;99.90;;;;;;5058470;28;20055;-85
2022/07/01 03:31:53;;;;;;;11.93;4.03;;;22.00;99.90;;;;;;5089823;28;20027;-86
2022/07/01 03:34:19;;;;;;;13.02;4.78;;;22.00;99.90;;;;;;5069576;28;20032;-85
2022/07/01 03:36:44;;;;;;;9.88;4.15;;;22.00;99.90;;;;;;5087986;28;20028;-85
2022/07/01 03:39:10;;;;;;;9.18;4.15;;;22.00;99.90;;;;;;5056338;28;20394;-84
2022/07/01 03:41:36;;;;;;;33.70;5.30;;;22.00;99.90;;;;;;5061890;28;20063;-87
2022/07/01 03:44:02;;;;;;;7.82;4.00;;;22.00;99.90;;;;;;5073609;28;20020;-85
2022/07/01 03:46:31;;;;;;;10.45;4.38;;;22.00;99.90;;;;;;5088360;28;20499;-85
2022/07/01 03:48:57;;;;;;;22.92;5.10;;;22.00;99.90;;;;;;5088424;28;20070;-86
2022/07/01 03:51:23;;;;;;;12.77;4.60;;;21.90;99.90;;;;;;5087642;28;20478;-85
2022/07/01 03:56:33;;;;;;;14.10;4.80;;;22.00;99.90;;;;;;5082253;28;20035;-85
2022/07/01 03:58:59;;;;;;;10.48;4.50;;;22.10;99.90;;;;;;5088115;28;20036;-86
2022/07/01 04:01:24;;;;;;;9.65;4.35;;;22.20;99.90;;;;;;5087686;28;20115;-86
2022/07/01 04:03:50;;;;;;;8.50;4.22;;;22.20;99.90;;;;;;5070378;28;20020;-85
2022/07/01 04:06:16;;;;;;;12.82;4.30;;;22.20;99.90;;;;;;5086836;28;20016;-86
2022/07/01 04:08:42;;;;;;;12.82;4.18;;;22.20;99.90;;;;;;5057525;28;20032;-86
2022/07/01 04:11:08;;;;;;;10.07;4.32;;;22.30;99.90;;;;;;5077327;28;20021;-85
2022/07/01 04:13:38;;;;;;;11.30;3.83;;;22.40;99.90;;;;;;5071763;28;20024;-85
2022/07/01 04:16:04;;;;;;;13.18;4.28;;;22.50;99.90;;;;;;5077333;28;20021;-85
2022/07/01 04:18:30;;;;;;;10.70;3.95;;;22.60;99.90;;;;;;5071560;28;20047;-86
2022/07/01 04:23:41;;;;;;;9.23;4.03;;;22.70;99.90;;;;;;5072363;28;20395;-86
2022/07/01 04:26:06;;;;;;;16.00;4.15;;;22.80;99.90;;;;;;5063801;28;20403;-85
2022/07/01 04:28:32;;;;;;;12.35;4.25;;;22.90;99.90;;;;;;5053899;28;20025;-85
2022/07/01 04:30:58;;;;;;;13.88;3.88;;;23.00;99.90;;;;;;5084625;28;20025;-85
2022/07/01 04:33:24;;;;;;;9.07;3.88;;;23.10;99.90;;;;;;5071503;28;20119;-84
2022/07/01 04:35:53;;;;;;;9.88;4.43;;;23.10;99.90;;;;;;5086620;28;20029;-86
2022/07/01 04:38:18;;;;;;;11.65;4.35;;;23.30;99.90;;;;;;5059199;28;20032;-86
2022/07/01 04:41:58;;;;;;;10.00;4.30;;;23.30;99.90;;;;;;5077857;28;20032;-86
2022/07/01 04:43:30;;;;;;;11.02;3.85;;;23.30;99.90;;;;;;5071278;28;20115;-85
2022/07/01 04:45:55;;;;;;;12.65;4.28;;;23.40;99.90;;;;;;5083606;28;20123;-86
2022/07/01 04:48:21;;;;;;;14.77;4.15;;;23.40;99.90;;;;;;5053079;28;20047;-85
2022/07/01 04:50:47;;;;;;;11.18;3.83;;;23.40;99.90;;;;;;5078030;28;20027;-85
2022/07/01 04:53:14;;;;;;;11.38;3.83;;;23.50;99.90;;;;;;5071117;28;20120;-85
2022/07/01 04:55:39;;;;;;;8.70;3.92;;;23.50;99.90;;;;;;5082550;28;20020;-85
2022/07/01 04:58:05;;;;;;;10.80;3.58;;;23.70;99.90;;;;;;5091215;28;20083;-85
2022/07/01 05:00:31;;;;;;;9.43;3.50;;;23.80;99.90;;;;;;5077790;28;20032;-86
2022/07/01 05:02:57;;;;;;;9.32;3.58;;;24.00;99.90;;;;;;5075575;28;20067;-85
2022/07/01 05:05:23;;;;;;;10.15;3.75;;;24.10;99.90;;;;;;5084566;28;20028;-86
2022/07/01 05:07:48;;;;;;;14.73;4.00;;;24.20;99.90;;;;;;5061432;28;20059;-86
2022/07/01 05:10:14;;;;;;;13.73;4.15;;;24.30;99.90;;;;;;5079289;28;20043;-87
2022/07/01 05:12:40;;;;;;;8.52;3.88;;;24.40;99.90;;;;;;5058860;28;20467;-86
2022/07/01 05:15:06;;;;;;;8.77;3.92;;;24.40;99.90;;;;;;5082869;28;20088;-86
2022/07/01 05:23:01;;;;;;;10.98;3.35;;;24.70;99.90;;;;;;5092895;28;20309;-83
2022/07/01 05:25:27;;;;;;;9.35;3.47;;;24.70;99.90;;;;;;5088026;28;20390;-84
2022/07/01 05:27:54;;;;;;;9.35;3.78;;;24.80;99.90;;;;;;5093382;28;20058;-84
2022/07/01 05:30:23;;;;;;;10.60;4.05;;;24.90;99.90;;;;;;5088684;28;20016;-84
2022/07/01 05:32:49;;;;;;;7.60;3.40;;;25.00;99.90;;;;;;5075178;28;20080;-84
2022/07/01 05:35:14;;;;;;;12.85;3.47;;;25.00;99.90;;;;;;5088477;28;20111;-84
2022/07/01 05:37:41;;;;;;;11.45;3.13;;;25.10;99.90;;;;;;5065872;28;20047;-85
2022/07/01 05:40:08;;;;;;;13.73;3.47;;;25.20;99.90;;;;;;5075103;28;20025;-84
2022/07/01 05:42:33;;;;;;;10.90;3.38;;;25.20;99.90;;;;;;5075145;28;20021;-84
2022/07/01 05:44:59;;;;;;;13.13;3.78;;;25.30;99.90;;;;;;5078600;28;20057;-83
2022/07/01 05:47:25;;;;;;;21.23;4.05;;;25.30;99.90;;;;;;5076034;28;20416;-85
2022/07/01 05:49:51;;;;;;;10.00;3.05;;;25.50;99.90;;;;;;5079679;28;20021;-85
2022/07/01 05:52:16;;;;;;;9.55;3.55;;;25.60;99.90;;;;;;5093011;28;20111;-84
2022/07/01 05:54:42;;;;;;;10.82;3.40;;;25.70;99.90;;;;;;5069182;28;20115;-85
2022/07/01 05:57:09;;;;;;;20.30;4.20;;;25.70;99.90;;;;;;5088153;28;20078;-83
2022/07/01 05:59:35;;;;;;;15.02;3.08;;;25.80;99.90;;;;;;5083061;28;20039;-84
2022/07/01 06:02:01;;;;;;;13.57;3.35;;;25.90;99.90;;;;;;5089502;28;20025;-85
2022/07/01 06:04:27;;;;;;;9.10;3.35;;;26.00;99.90;;;;;;5077755;28;20039;-84
2022/07/01 06:06:53;;;;;;;9.00;2.88;;;26.00;99.90;;;;;;5080808;28;20094;-85
2022/07/01 06:09:18;;;;;;;12.20;3.20;;;26.20;99.90;;;;;;5039042;28;20035;-85
2022/07/01 06:11:45;;;;;;;12.13;3.05;;;26.30;99.90;;;;;;5077017;28;20425;-85
2022/07/01 06:14:11;;;;;;;8.25;2.88;;;26.50;99.90;;;;;;5076092;28;20024;-84
2022/07/01 06:16:37;;;;;;;10.35;3.25;;;26.50;99.90;;;;;;5072549;28;20021;-84
2022/07/01 06:19:04;;;;;;;12.68;3.30;;;26.60;99.90;;;;;;5089413;28;20037;-85
2022/07/01 06:21:30;;;;;;;7.47;2.95;;;26.70;99.90;;;;;;5074509;28;20021;-84
2022/07/01 06:23:56;;;;;;;5.95;2.72;;;26.80;99.90;;;;;;5075902;28;20078;-83
2022/07/01 06:26:22;;;;;;;11.65;2.90;;;26.80;99.90;;;;;;5060105;28;20028;-85
2022/07/01 06:28:48;;;;;;;15.70;3.67;;;27.00;99.90;;;;;;5074625;28;20021;-85
2022/07/01 06:31:13;;;;;;;6.95;2.83;;;27.10;99.90;;;;;;5070514;28;20028;-85
2022/07/01 06:33:39;;;;;;;10.15;3.42;;;27.20;99.90;;;;;;5073820;28;20024;-84
2022/07/01 06:36:05;;;;;;;14.32;3.38;;;27.30;99.90;;;;;;5077419;28;20029;-85
2022/07/01 06:38:31;;;;;;;9.15;2.85;;;27.30;99.90;;;;;;5059336;28;20033;-88
2022/07/01 06:43:43;;;;;;;11.50;2.88;;;27.50;99.90;;;;;;5062635;28;20055;-83
2022/07/01 06:46:09;;;;;;;12.55;2.85;;;27.60;99.90;;;;;;5061884;28;20045;-81
2022/07/01 06:48:35;;;;;;;8.93;2.95;;;27.70;99.90;;;;;;5073671;28;20032;-83
2022/07/01 06:51:02;;;;;;;9.05;2.90;;;27.70;99.90;;;;;;5087213;28;20025;-86
2022/07/01 06:53:27;;;;;;;9.80;2.60;;;27.80;99.90;;;;;;5055776;28;20063;-83
2022/07/01 06:55:53;;;;;;;20.15;2.92;;;27.90;99.90;;;;;;5067514;28;20056;-83
2022/07/01 06:58:19;;;;;;;9.20;3.10;;;28.00;99.90;;;;;;5093527;28;20541;-82
2022/07/01 07:00:45;;;;;;;12.60;3.25;;;28.10;99.90;;;;;;5061145;28;20399;-83
2022/07/01 07:03:10;;;;;;;12.10;2.90;;;28.20;99.90;;;;;;5072895;28;20603;-84
2022/07/01 07:05:36;;;;;;;10.90;3.22;;;28.20;99.90;;;;;;5058768;28;20047;-84
2022/07/01 07:08:02;;;;;;;12.18;3.00;;;28.30;99.90;;;;;;5061272;28;20508;-84
2022/07/01 07:10:28;;;;;;;8.43;2.70;;;28.40;99.90;;;;;;5074709;28;20040;-84
2022/07/01 07:12:53;;;;;;;7.82;3.10;;;28.40;99.90;;;;;;5071366;28;20031;-83
2022/07/01 07:15:19;;;;;;;11.60;3.40;;;28.60;99.90;;;;;;5082622;28;20400;-84
2022/07/01 07:17:45;;;;;;;8.93;2.75;;;28.70;99.90;;;;;;5074316;28;20056;-84
2022/07/01 07:20:11;;;;;;;8.60;2.95;;;28.90;99.90;;;;;;5063246;28;20093;-83
2022/07/01 07:22:36;;;;;;;15.20;2.72;;;29.00;99.90;;;;;;5091285;28;20020;-83
2022/07/01 07:25:02;;;;;;;10.82;3.50;;;29.10;99.90;;;;;;5064531;28;20098;-82
2022/07/01 07:27:28;;;;;;;13.63;3.65;;;29.20;99.90;;;;;;5073697;28;20678;-83
2022/07/01 07:29:54;;;;;;;12.90;3.50;;;29.40;99.90;;;;;;5060545;28;20175;-84
2022/07/01 07:32:20;;;;;;;13.10;3.90;;;29.30;99.90;;;;;;5083456;28;20012;-84
2022/07/01 07:34:46;;;;;;;20.20;3.88;;;29.30;99.90;;;;;;5073352;28;20052;-84
2022/07/01 07:37:11;;;;;;;17.60;3.53;;;29.40;99.90;;;;;;5049356;28;20512;-83
2022/07/01 07:39:37;;;;;;;16.20;3.88;;;29.50;99.90;;;;;;5071806;28;20032;-84
2022/07/01 07:42:04;;;;;;;12.30;3.45;;;29.80;99.90;;;;;;5082818;28;20012;-84
2022/07/01 07:44:30;;;;;;;11.32;3.58;;;29.80;99.90;;;;;;5072916;28;20040;-84
2022/07/01 07:46:59;;;;;;;14.73;3.38;;;29.90;99.90;;;;;;5077544;28;20164;-85
2022/07/01 07:49:25;;;;;;;16.38;3.70;;;30.00;99.90;;;;;;5071804;28;20061;-84
2022/07/01 07:51:52;;;;;;;33.20;10.18;;;30.10;99.90;;;;;;5085404;28;20103;-85
2022/07/01 07:54:17;;;;;;;12.52;4.05;;;30.10;99.90;;;;;;5074897;28;20031;-84
2022/07/01 07:56:43;;;;;;;16.17;4.53;;;30.30;99.90;;;;;;5080362;28;20024;-84
2022/07/01 07:59:09;;;;;;;16.20;4.38;;;30.30;99.90;;;;;;5073274;28;20132;-84
2022/07/01 08:01:34;;;;;;;16.55;3.83;;;30.30;99.90;;;;;;5084357;28;20388;-85
2022/07/01 08:04:00;;;;;;;14.57;3.53;;;30.30;99.90;;;;;;5071228;28;20024;-84
2022/07/01 08:06:28;;;;;;;16.40;3.83;;;30.20;99.90;;;;;;5074202;28;20020;-84
2022/07/01 08:08:54;;;;;;;19.20;4.20;;;30.30;99.90;;;;;;5054526;28;20511;-83
2022/07/01 08:11:20;;;;;;;11.45;3.80;;;30.40;99.90;;;;;;5076753;28;20107;-84
2022/07/01 08:13:46;;;;;;;13.60;3.80;;;30.40;99.90;;;;;;5072171;28;20506;-82
2022/07/01 08:16:12;;;;;;;13.52;3.72;;;30.40;99.90;;;;;;5080607;28;20027;-81
2022/07/01 08:18:38;;;;;;;11.25;3.88;;;30.60;99.90;;;;;;5064717;28;20052;-82
2022/07/01 08:21:05;;;;;;;13.55;4.15;;;30.70;99.90;;;;;;5073943;28;20056;-82
2022/07/01 08:23:30;;;;;;;15.65;4.40;;;30.80;99.90;;;;;;5051794;28;20024;-82
2022/07/01 08:25:56;;;;;;;14.93;4.55;;;30.80;99.90;;;;;;5075258;28;20024;-81
2022/07/01 08:28:22;;;;;;;18.05;4.60;;;30.80;99.90;;;;;;5051367;28;20090;-81
2022/07/01 08:30:47;;;;;;;17.75;4.53;;;30.90;99.90;;;;;;5074484;28;20090;-81
2022/07/01 08:33:13;;;;;;;13.02;4.13;;;31.00;99.90;;;;;;5069173;28;20028;-81
2022/07/01 08:35:39;;;;;;;18.35;4.10;;;31.00;99.90;;;;;;5056292;28;20039;-81
2022/07/01 08:38:06;;;;;;;13.27;3.53;;;31.20;99.90;;;;;;5060455;28;20045;-81
2022/07/01 08:40:32;;;;;;;11.88;4.15;;;31.00;99.90;;;;;;5053178;28;20027;-81
2022/07/01 08:43:04;;;;;;;18.75;3.60;;;31.00;99.90;;;;;;5052140;28;20058;-82
2022/07/01 08:45:32;;;;;;;16.70;4.18;;;30.90;99.90;;;;;;5074100;28;20504;-81
2022/07/01 08:48:02;;;;;;;17.88;4.53;;;30.90;99.90;;;;;;5070269;28;20036;-81
2022/07/01 08:50:38;;;;;;;11.75;3.85;;;31.10;99.90;;;;;;5075937;28;20105;-81
2022/07/01 08:53:05;;;;;;;15.93;3.97;;;31.20;99.90;;;;;;5049020;28;20033;-81
2022/07/01 08:55:31;;;;;;;20.02;5.00;;;31.30;99.90;;;;;;5063025;28;20016;-81
2022/07/01 08:57:58;;;;;;;14.13;4.10;;;31.40;99.90;;;;;;5070005;28;20036;-83
2022/07/01 09:00:33;;;;;;;12.02;3.85;;;31.10;99.90;;;;;;5059149;28;20582;-81
2022/07/01 09:03:03;;;;;;;12.88;4.00;;;31.00;99.90;;;;;;5048969;28;20031;-82
2022/07/01 09:05:31;;;;;;;17.50;4.30;;;30.80;99.90;;;;;;5060444;28;20482;-82
2022/07/01 09:08:04;;;;;;;19.17;4.05;;;30.80;99.90;;;;;;5054004;28;20028;-82
2022/07/01 09:10:33;;;;;;;12.90;3.90;;;30.80;99.90;;;;;;5057937;28;20068;-82
2022/07/01 09:13:11;;;;;;;20.42;4.20;;;30.90;99.90;;;;;;5053735;28;20479;-82
2022/07/01 09:15:39;;;;;;;14.27;4.07;;;31.00;99.90;;;;;;5064771;28;20028;-84
2022/07/01 09:18:05;;;;;;;23.08;4.30;;;31.20;99.90;;;;;;5089302;28;20032;-85
2022/07/01 09:20:40;;;;;;;21.42;4.10;;;31.10;99.90;;;;;;5081978;28;20145;-84
2022/07/01 09:23:15;;;;;;;15.45;4.28;;;31.00;99.90;;;;;;5089323;28;20035;-83
2022/07/01 09:25:49;;;;;;;18.38;4.35;;;30.80;99.90;;;;;;5053760;28;20454;-87
2022/07/01 09:28:25;;;;;;;18.17;4.20;;;30.70;99.90;;;;;;5066647;28;20033;-85
2022/07/01 09:30:58;;;;;;;11.60;4.05;;;30.80;99.90;;;;;;5063080;28;20032;-86
2022/07/01 09:33:28;;;;;;;9.70;4.57;;;30.70;99.90;;;;;;5052489;28;20032;-84
2022/07/01 09:35:55;;;;;;;15.13;3.65;;;31.00;99.90;;;;;;5082360;28;20025;-87
2022/07/01 09:38:23;;;;;;;14.65;4.30;;;30.90;99.90;;;;;;5071075;28;20041;-86
2022/07/01 09:40:57;;;;;;;20.88;4.70;;;30.10;99.90;;;;;;5049050;28;20035;-87
2022/07/01 09:43:28;;;;;;;14.20;3.75;;;29.50;99.90;;;;;;5078805;28;20027;-87
2022/07/01 09:46:08;;;;;;;11.88;3.75;;;29.10;99.90;;;;;;5082198;28;20048;-87
2022/07/01 09:48:34;;;;;;;12.75;3.45;;;29.00;99.90;;;;;;5052113;28;20452;-87
2022/07/01 09:51:01;;;;;;;18.25;3.78;;;29.10;99.90;;;;;;5054833;28;20124;-87
2022/07/01 09:53:27;;;;;;;13.90;3.63;;;29.20;99.90;;;;;;5070591;28;20109;-89
2022/07/01 09:55:53;;;;;;;17.02;3.92;;;29.10;99.90;;;;;;5058815;28;20074;-85
2022/07/01 09:58:19;;;;;;;14.82;3.70;;;29.10;99.90;;;;;;5055962;28;20044;-83
2022/07/01 10:00:45;;;;;;;11.73;3.92;;;29.00;99.90;;;;;;5063419;28;20086;-87
2022/07/01 10:03:12;;;;;;;13.93;3.92;;;29.00;99.90;;;;;;5074018;28;20052;-86
2022/07/01 10:05:47;;;;;;;13.95;4.15;;;29.00;99.90;;;;;;5066458;28;20032;-86
2022/07/01 10:08:40;;;;;;;18.52;3.80;;;29.00;99.90;;;;;;5072560;28;20102;-85
2022/07/01 10:11:18;;;;;;;18.05;4.47;;;29.20;99.90;;;;;;5063414;28;20474;-85
2022/07/01 10:13:45;;;;;;;25.65;4.15;;;29.20;99.90;;;;;;5064079;28;20032;-85
2022/07/01 10:16:12;;;;;;;17.50;3.75;;;29.30;99.90;;;;;;5064329;28;20029;-83
2022/07/01 10:18:38;;;;;;;20.27;4.32;;;29.20;99.90;;;;;;5056320;28;20037;-82
2022/07/01 10:21:05;;;;;;;14.35;3.72;;;29.30;99.90;;;;;;5069573;28;20027;-88
2022/07/01 10:23:44;;;;;;;15.18;4.15;;;29.50;99.90;;;;;;5093016;28;20020;-88
2022/07/01 10:26:13;;;;;;;18.45;5.05;;;29.40;99.90;;;;;;5087468;28;20020;-89
2022/07/01 10:28:42;;;;;;;15.68;4.30;;;29.50;99.90;;;;;;5092185;28;20712;-86
2022/07/01 10:31:18;;;;;;;17.40;4.60;;;29.60;99.90;;;;;;5068990;28;20040;-86
2022/07/01 10:33:48;;;;;;;16.48;4.47;;;29.60;99.90;;;;;;5073384;28;20030;-88
2022/07/01 10:36:27;;;;;;;15.52;4.13;;;29.40;99.90;;;;;;5078925;28;20384;-85
2022/07/01 10:39:09;;;;;;;17.65;4.90;;;29.40;99.90;;;;;;5042376;28;20029;-84
2022/07/01 10:41:39;;;;;;;16.80;4.88;;;29.60;99.90;;;;;;5057863;28;20107;-85
2022/07/01 10:44:07;;;;;;;13.27;4.03;;;29.60;99.90;;;;;;5058819;28;20028;-82
2022/07/01 10:46:44;;;;;;;22.08;4.60;;;29.70;99.90;;;;;;5074629;28;20462;-86
2022/07/01 10:49:16;;;;;;;21.02;4.60;;;29.30;99.90;;;;;;5057136;28;20111;-84
2022/07/01 10:51:47;;;;;;;15.25;4.40;;;29.00;99.90;;;;;;5083295;28;20052;-85
2022/07/01 10:54:33;;;;;;;16.77;4.75;;;29.10;99.90;;;;;;5075932;28;20524;-84
2022/07/01 10:57:20;;;;;;;16.20;6.35;;;29.10;99.90;;;;;;5081668;28;20021;-85
2022/07/01 11:00:15;;;;;;;21.23;5.35;;;29.00;99.90;;;;;;5060542;28;20055;-84
2022/07/01 11:02:41;;;;;;;30.33;6.13;;;29.00;99.90;;;;;;5059603;28;20047;-84
2022/07/01 11:05:12;;;;;;;18.35;5.60;;;29.00;99.90;;;;;;5082983;28;20024;-84
2022/07/01 11:07:47;;;;;;;18.50;6.03;;;28.70;99.90;;;;;;5047529;28;20013;-86
2022/07/01 11:10:15;;;;;;;23.17;6.13;;;28.70;99.90;;;;;;5056891;28;20544;-85
2022/07/01 11:12:43;;;;;;;22.60;6.50;;;29.00;99.90;;;;;;5075078;28;20021;-85
2022/07/01 11:15:10;;;;;;;31.10;6.93;;;28.80;99.90;;;;;;5076344;28;20021;-86
2022/07/01 11:17:45;;;;;;;26.48;7.55;;;28.70;99.90;;;;;;5074827;28;20024;-87
2022/07/01 11:20:11;;;;;;;26.40;7.95;;;28.90;99.90;;;;;;5076065;28;20070;-91
2022/07/01 11:22:38;;;;;;;25.15;7.68;;;29.10;99.90;;;;;;5071187;28;20063;-87
2022/07/01 11:25:07;;;;;;;30.75;8.57;;;29.00;99.90;;;;;;5064805;28;20495;-89
2022/07/01 11:27:34;;;;;;;32.88;9.13;;;29.20;99.90;;;;;;5071875;28;20107;-88
2022/07/01 11:30:04;;;;;;;32.35;9.40;;;29.00;99.90;;;;;;5061533;28;20024;-87
2022/07/01 11:32:37;;;;;;;38.10;9.57;;;28.90;99.90;;;;;;5090765;28;20051;-85
2022/07/01 11:40:35;;;;;;;49.00;10.10;;;29.70;99.90;;;;;;5076700;28;20055;-83
2022/07/01 11:43:00;;;;;;;39.67;10.13;;;30.20;99.90;;;;;;5053445;28;20021;-87
2022/07/01 11:45:26;;;;;;;36.83;10.20;;;30.30;99.90;;;;;;5055425;28;20052;-84
2022/07/01 11:47:53;;;;;;;37.90;9.10;;;30.00;99.90;;;;;;5053939;28;20043;-85
2022/07/01 11:50:19;;;;;;;40.45;10.48;;;30.10;99.90;;;;;;5061896;28;20035;-85
2022/07/01 11:52:45;;;;;;;35.25;9.73;;;30.20;99.90;;;;;;5088565;28;20587;-85
2022/07/01 11:55:11;;;;;;;46.20;10.30;;;30.30;99.90;;;;;;5084145;28;20083;-86
2022/07/01 11:57:37;;;;;;;27.92;7.50;;;30.50;99.90;;;;;;5089206;28;20138;-89
2022/07/01 12:00:11;;;;;;;42.35;9.63;;;30.60;99.90;;;;;;5083643;28;20441;-88
2022/07/01 12:02:38;;;;;;;24.92;7.30;;;30.70;99.90;;;;;;5071353;28;20028;-86
2022/07/01 12:05:05;;;;;;;29.60;7.85;;;31.00;99.90;;;;;;5085744;28;20028;-89
2022/07/01 12:07:34;;;;;;;25.23;6.13;;;32.60;99.90;;;;;;5082996;28;20028;-87
2022/07/01 12:10:01;;;;;;;27.42;6.95;;;34.20;99.90;;;;;;5076353;28;20032;-88
2022/07/01 12:12:27;;;;;;;24.65;6.68;;;35.60;99.90;;;;;;5073519;28;20020;-88
2022/07/01 12:14:58;;;;;;;25.63;6.15;;;35.80;99.90;;;;;;5058460;28;20081;-87
2022/07/01 12:17:25;;;;;;;23.90;7.13;;;35.70;99.90;;;;;;5072893;28;20097;-87
2022/07/01 12:19:52;;;;;;;36.58;8.18;;;35.00;99.90;;;;;;5056581;28;20060;-87
2022/07/01 12:22:24;;;;;;;35.00;9.13;;;35.20;99.90;;;;;;5073313;28;20024;-86
2022/07/01 12:24:51;;;;;;;39.83;9.00;;;36.80;99.90;;;;;;5075845;28;20048;-87
2022/07/01 12:27:20;;;;;;;50.47;9.48;;;36.50;99.90;;;;;;5073452;28;20056;-85
2022/07/01 12:29:46;;;;;;;31.92;8.15;;;37.50;99.90;;;;;;5058295;28;20036;-88
2022/07/01 12:32:14;;;;;;;46.35;9.93;;;37.50;99.90;;;;;;5073063;28;20359;-87
2022/07/01 12:34:48;;;;;;;45.92;9.90;;;37.00;99.90;;;;;;5059457;28;20028;-88
2022/07/01 12:37:17;;;;;;;38.60;9.68;;;36.40;99.90;;;;;;5073310;28;20025;-87
2022/07/01 12:39:48;;;;;;;39.50;9.10;;;36.80;99.90;;;;;;5075886;28;20025;-87
2022/07/01 12:42:24;;;;;;;44.65;9.98;;;38.40;99.90;;;;;;5052512;28;20029;-89
2022/07/01 12:44:51;;;;;;;46.28;9.88;;;38.10;99.90;;;;;;5076981;28;20052;-88
2022/07/01 12:47:38;;;;;;;35.17;9.60;;;37.80;99.90;;;;;;5089596;28;20027;-87
2022/07/01 12:50:22;;;;;;;37.42;9.40;;;38.50;99.90;;;;;;5066798;28;20031;-88
2022/07/01 12:53:09;;;;;;;29.08;9.20;;;39.20;99.90;;;;;;5089968;28;20020;-89
2022/07/01 12:55:39;;;;;;;38.53;8.73;;;37.80;99.90;;;;;;5065931;28;20036;-90
2022/07/01 12:58:07;;;;;;;42.10;9.30;;;37.80;99.90;;;;;;5072804;28;20047;-88
2022/07/01 13:00:33;;;;;;;44.92;8.80;;;38.50;99.90;;;;;;5057696;28;20020;-88